sensor_id;sensor_type;location;lat;lon;timestamp;P1;durP1;ratioP1;P2;durP2;ratioP2
13731;SDS011;6937;56.096;12.664;2023-04-30T00:01:58;15.65;;;4.70;;
13731;SDS011;6937;56.096;12.664;2023-04-30T00:04:23;13.73;;;3.70;;
13731;SDS011;6937;56.096;12.664;2023-04-30T00:06:49;14.07;;;4.32;;
13731;SDS011;6937;56.096;12.664;2023-04-30T00:09:14;12.57;;;3.88;;
13731;SDS011;6937;56.096;12.664;2023-04-30T00:11:40;12.77;;;4.15;;
13731;SDS011;6937;56.096;12.664;2023-04-30T00:14:05;11.82;;;4.45;;
13731;SDS011;6937;56.096;12.664;2023-04-30T00:16:30;13.68;;;4.07;;
13731;SDS011;6937;56.096;12.664;2023-04-30T00:18:56;12.02;;;3.97;;
13731;SDS011;6937;56.096;12.664;2023-04-30T00:21:21;16.52;;;4.05;;
13731;SDS011;6937;56.096;12.664;2023-04-30T00:23:46;14.95;;;4.35;;
13731;SDS011;6937;56.096;12.664;2023-04-30T00:26:12;13.57;;;4.13;;
13731;SDS011;6937;56.096;12.664;2023-04-30T00:28:37;15.32;;;3.88;;
13731;SDS011;6937;56.096;12.664;2023-04-30T00:31:02;16.17;;;4.43;;
13731;SDS011;6937;56.096;12.664;2023-04-30T00:33:30;14.20;;;4.13;;
13731;SDS011;6937;56.096;12.664;2023-04-30T00:35:56;14.82;;;4.05;;
13731;SDS011;6937;56.096;12.664;2023-04-30T00:38:21;13.57;;;4.32;;
13731;SDS011;6937;56.096;12.664;2023-04-30T00:40:47;12.48;;;3.70;;
13731;SDS011;6937;56.096;12.664;2023-04-30T00:43:13;13.07;;;3.78;;
13731;SDS011;6937;56.096;12.664;2023-04-30T00:45:38;13.38;;;4.07;;
13731;SDS011;6937;56.096;12.664;2023-04-30T00:48:04;11.82;;;3.92;;
13731;SDS011;6937;56.096;12.664;2023-04-30T00:50:30;13.05;;;4.00;;
13731;SDS011;6937;56.096;12.664;2023-04-30T00:52:55;18.13;;;4.30;;
13731;SDS011;6937;56.096;12.664;2023-04-30T00:55:21;13.18;;;4.50;;
13731;SDS011;6937;56.096;12.664;2023-04-30T00:57:46;14.25;;;3.97;;
13731;SDS011;6937;56.096;12.664;2023-04-30T01:00:12;10.00;;;3.40;;
13731;SDS011;6937;56.096;12.664;2023-04-30T01:02:39;19.00;;;4.70;;
13731;SDS011;6937;56.096;12.664;2023-04-30T01:05:05;14.68;;;4.65;;
13731;SDS011;6937;56.096;12.664;2023-04-30T01:07:31;13.80;;;3.83;;
13731;SDS011;6937;56.096;12.664;2023-04-30T01:09:58;13.18;;;4.45;;
13731;SDS011;6937;56.096;12.664;2023-04-30T01:12:28;16.23;;;4.20;;
13731;SDS011;6937;56.096;12.664;2023-04-30T01:17:47;12.32;;;3.97;;
13731;SDS011;6937;56.096;12.664;2023-04-30T01:20:20;11.50;;;3.78;;
13731;SDS011;6937;56.096;12.664;2023-04-30T01:28:14;11.00;;;3.50;;
13731;SDS011;6937;56.096;12.664;2023-04-30T01:30:41;10.23;;;3.40;;
13731;SDS011;6937;56.096;12.664;2023-04-30T01:33:09;10.35;;;3.42;;
13731;SDS011;6937;56.096;12.664;2023-04-30T01:43:46;14.15;;;4.03;;
13731;SDS011;6937;56.096;12.664;2023-04-30T01:48:53;10.77;;;3.20;;
13731;SDS011;6937;56.096;12.664;2023-04-30T01:51:40;10.40;;;3.22;;
13731;SDS011;6937;56.096;12.664;2023-04-30T01:54:16;9.68;;;2.92;;
13731;SDS011;6937;56.096;12.664;2023-04-30T01:56:45;10.73;;;3.22;;
13731;SDS011;6937;56.096;12.664;2023-04-30T01:59:17;15.98;;;3.70;;
13731;SDS011;6937;56.096;12.664;2023-04-30T02:01:43;13.00;;;3.42;;
13731;SDS011;6937;56.096;12.664;2023-04-30T02:04:09;13.52;;;3.03;;
13731;SDS011;6937;56.096;12.664;2023-04-30T02:06:34;13.75;;;3.20;;
13731;SDS011;6937;56.096;12.664;2023-04-30T02:09:00;12.38;;;3.85;;
13731;SDS011;6937;56.096;12.664;2023-04-30T02:11:30;8.30;;;2.85;;
13731;SDS011;6937;56.096;12.664;2023-04-30T02:13:55;10.05;;;3.30;;
13731;SDS011;6937;56.096;12.664;2023-04-30T02:16:21;10.05;;;3.38;;
13731;SDS011;6937;56.096;12.664;2023-04-30T02:18:46;13.13;;;3.38;;
13731;SDS011;6937;56.096;12.664;2023-04-30T02:21:12;9.90;;;3.50;;
13731;SDS011;6937;56.096;12.664;2023-04-30T02:23:38;13.55;;;3.10;;
13731;SDS011;6937;56.096;12.664;2023-04-30T02:26:03;9.07;;;3.13;;
13731;SDS011;6937;56.096;12.664;2023-04-30T02:28:29;11.13;;;3.28;;
13731;SDS011;6937;56.096;12.664;2023-04-30T02:30:54;11.52;;;3.30;;
13731;SDS011;6937;56.096;12.664;2023-04-30T02:33:19;11.02;;;3.13;;
13731;SDS011;6937;56.096;12.664;2023-04-30T02:35:45;11.13;;;3.10;;
13731;SDS011;6937;56.096;12.664;2023-04-30T02:38:10;10.40;;;3.47;;
13731;SDS011;6937;56.096;12.664;2023-04-30T02:40:36;9.35;;;2.78;;
13731;SDS011;6937;56.096;12.664;2023-04-30T02:43:01;11.75;;;3.03;;
13731;SDS011;6937;56.096;12.664;2023-04-30T02:45:26;5.80;;;2.45;;
13731;SDS011;6937;56.096;12.664;2023-04-30T02:47:51;8.48;;;2.67;;
13731;SDS011;6937;56.096;12.664;2023-04-30T02:50:17;12.55;;;3.00;;
13731;SDS011;6937;56.096;12.664;2023-04-30T02:52:43;5.35;;;2.30;;
13731;SDS011;6937;56.096;12.664;2023-04-30T02:55:10;9.00;;;2.75;;
13731;SDS011;6937;56.096;12.664;2023-04-30T02:57:35;8.77;;;2.97;;
13731;SDS011;6937;56.096;12.664;2023-04-30T03:00:01;9.35;;;2.60;;
13731;SDS011;6937;56.096;12.664;2023-04-30T03:02:26;8.13;;;2.90;;
13731;SDS011;6937;56.096;12.664;2023-04-30T03:04:52;7.97;;;2.60;;
13731;SDS011;6937;56.096;12.664;2023-04-30T03:07:17;7.32;;;2.80;;
13731;SDS011;6937;56.096;12.664;2023-04-30T03:09:42;8.82;;;3.00;;
13731;SDS011;6937;56.096;12.664;2023-04-30T03:12:08;8.23;;;3.05;;
13731;SDS011;6937;56.096;12.664;2023-04-30T03:14:33;8.73;;;3.13;;
13731;SDS011;6937;56.096;12.664;2023-04-30T03:16:58;8.40;;;2.40;;
13731;SDS011;6937;56.096;12.664;2023-04-30T03:19:24;10.90;;;3.22;;
13731;SDS011;6937;56.096;12.664;2023-04-30T03:21:53;6.03;;;2.03;;
13731;SDS011;6937;56.096;12.664;2023-04-30T03:24:19;12.80;;;3.42;;
13731;SDS011;6937;56.096;12.664;2023-04-30T03:26:44;10.48;;;3.72;;
13731;SDS011;6937;56.096;12.664;2023-04-30T03:29:10;8.55;;;2.58;;
13731;SDS011;6937;56.096;12.664;2023-04-30T03:31:35;4.82;;;1.58;;
13731;SDS011;6937;56.096;12.664;2023-04-30T03:34:01;4.55;;;1.55;;
13731;SDS011;6937;56.096;12.664;2023-04-30T03:36:26;2.80;;;1.45;;
13731;SDS011;6937;56.096;12.664;2023-04-30T03:38:52;5.38;;;2.08;;
13731;SDS011;6937;56.096;12.664;2023-04-30T03:41:17;7.25;;;1.88;;
13731;SDS011;6937;56.096;12.664;2023-04-30T03:43:43;9.05;;;3.38;;
13731;SDS011;6937;56.096;12.664;2023-04-30T03:46:09;9.68;;;3.75;;
13731;SDS011;6937;56.096;12.664;2023-04-30T03:48:34;9.32;;;4.05;;
13731;SDS011;6937;56.096;12.664;2023-04-30T03:50:59;10.40;;;3.28;;
13731;SDS011;6937;56.096;12.664;2023-04-30T03:53:25;7.93;;;3.20;;
13731;SDS011;6937;56.096;12.664;2023-04-30T03:55:50;12.98;;;3.40;;
13731;SDS011;6937;56.096;12.664;2023-04-30T03:58:17;11.05;;;3.22;;
13731;SDS011;6937;56.096;12.664;2023-04-30T04:00:43;9.50;;;3.45;;
13731;SDS011;6937;56.096;12.664;2023-04-30T04:03:10;8.75;;;2.90;;
13731;SDS011;6937;56.096;12.664;2023-04-30T04:05:36;8.43;;;2.95;;
13731;SDS011;6937;56.096;12.664;2023-04-30T04:08:01;8.43;;;3.00;;
13731;SDS011;6937;56.096;12.664;2023-04-30T04:10:26;9.07;;;2.97;;
13731;SDS011;6937;56.096;12.664;2023-04-30T04:12:52;7.47;;;2.80;;
13731;SDS011;6937;56.096;12.664;2023-04-30T04:15:18;10.50;;;2.80;;
13731;SDS011;6937;56.096;12.664;2023-04-30T04:17:43;9.63;;;2.60;;
13731;SDS011;6937;56.096;12.664;2023-04-30T04:20:08;8.05;;;2.83;;
13731;SDS011;6937;56.096;12.664;2023-04-30T04:22:34;7.63;;;3.30;;
13731;SDS011;6937;56.096;12.664;2023-04-30T04:25:00;6.82;;;3.03;;
13731;SDS011;6937;56.096;12.664;2023-04-30T04:27:25;7.45;;;3.05;;
13731;SDS011;6937;56.096;12.664;2023-04-30T04:29:50;5.80;;;2.78;;
13731;SDS011;6937;56.096;12.664;2023-04-30T04:32:16;6.13;;;2.47;;
13731;SDS011;6937;56.096;12.664;2023-04-30T04:34:42;11.18;;;2.55;;
13731;SDS011;6937;56.096;12.664;2023-04-30T04:37:07;8.20;;;2.33;;
13731;SDS011;6937;56.096;12.664;2023-04-30T04:39:33;6.18;;;2.47;;
13731;SDS011;6937;56.096;12.664;2023-04-30T04:42:01;5.78;;;2.15;;
13731;SDS011;6937;56.096;12.664;2023-04-30T04:44:26;6.25;;;2.10;;
13731;SDS011;6937;56.096;12.664;2023-04-30T04:46:52;3.60;;;1.80;;
13731;SDS011;6937;56.096;12.664;2023-04-30T04:49:18;6.85;;;2.45;;
13731;SDS011;6937;56.096;12.664;2023-04-30T04:51:44;6.03;;;1.80;;
13731;SDS011;6937;56.096;12.664;2023-04-30T04:54:09;4.82;;;1.80;;
13731;SDS011;6937;56.096;12.664;2023-04-30T04:56:34;3.92;;;1.88;;
13731;SDS011;6937;56.096;12.664;2023-04-30T04:59:00;4.80;;;1.85;;
13731;SDS011;6937;56.096;12.664;2023-04-30T05:01:25;4.70;;;1.50;;
13731;SDS011;6937;56.096;12.664;2023-04-30T05:03:51;4.30;;;1.80;;
13731;SDS011;6937;56.096;12.664;2023-04-30T05:06:17;2.72;;;1.50;;
13731;SDS011;6937;56.096;12.664;2023-04-30T05:08:43;3.28;;;1.45;;
13731;SDS011;6937;56.096;12.664;2023-04-30T05:11:08;6.85;;;1.85;;
13731;SDS011;6937;56.096;12.664;2023-04-30T05:13:34;4.85;;;1.50;;
13731;SDS011;6937;56.096;12.664;2023-04-30T05:15:59;3.63;;;1.50;;
13731;SDS011;6937;56.096;12.664;2023-04-30T05:18:25;4.05;;;1.77;;
13731;SDS011;6937;56.096;12.664;2023-04-30T05:20:50;5.00;;;1.80;;
13731;SDS011;6937;56.096;12.664;2023-04-30T05:23:16;4.45;;;1.60;;
13731;SDS011;6937;56.096;12.664;2023-04-30T05:25:41;4.43;;;1.95;;
13731;SDS011;6937;56.096;12.664;2023-04-30T05:28:07;7.57;;;1.70;;
13731;SDS011;6937;56.096;12.664;2023-04-30T05:30:32;4.47;;;2.00;;
13731;SDS011;6937;56.096;12.664;2023-04-30T05:32:58;4.88;;;1.55;;
13731;SDS011;6937;56.096;12.664;2023-04-30T05:35:23;3.42;;;1.70;;
13731;SDS011;6937;56.096;12.664;2023-04-30T05:37:48;5.75;;;1.77;;
13731;SDS011;6937;56.096;12.664;2023-04-30T05:40:14;5.80;;;1.80;;
13731;SDS011;6937;56.096;12.664;2023-04-30T05:42:40;4.25;;;1.65;;
13731;SDS011;6937;56.096;12.664;2023-04-30T05:45:07;9.05;;;2.20;;
13731;SDS011;6937;56.096;12.664;2023-04-30T05:47:34;3.80;;;1.83;;
13731;SDS011;6937;56.096;12.664;2023-04-30T05:49:59;5.28;;;1.83;;
13731;SDS011;6937;56.096;12.664;2023-04-30T05:52:24;5.10;;;1.90;;
13731;SDS011;6937;56.096;12.664;2023-04-30T05:54:50;4.78;;;1.80;;
13731;SDS011;6937;56.096;12.664;2023-04-30T05:57:15;3.95;;;1.70;;
13731;SDS011;6937;56.096;12.664;2023-04-30T05:59:41;7.65;;;2.13;;
13731;SDS011;6937;56.096;12.664;2023-04-30T06:02:06;4.25;;;1.80;;
13731;SDS011;6937;56.096;12.664;2023-04-30T06:04:32;3.65;;;1.75;;
13731;SDS011;6937;56.096;12.664;2023-04-30T06:06:57;4.43;;;1.80;;
13731;SDS011;6937;56.096;12.664;2023-04-30T06:09:23;7.15;;;1.95;;
13731;SDS011;6937;56.096;12.664;2023-04-30T06:11:48;5.30;;;1.95;;
13731;SDS011;6937;56.096;12.664;2023-04-30T06:14:16;5.63;;;2.10;;
13731;SDS011;6937;56.096;12.664;2023-04-30T06:16:42;7.90;;;2.10;;
13731;SDS011;6937;56.096;12.664;2023-04-30T06:19:13;4.32;;;1.50;;
13731;SDS011;6937;56.096;12.664;2023-04-30T06:21:38;5.07;;;1.52;;
13731;SDS011;6937;56.096;12.664;2023-04-30T06:24:04;5.25;;;1.70;;
13731;SDS011;6937;56.096;12.664;2023-04-30T06:26:30;4.72;;;1.92;;
13731;SDS011;6937;56.096;12.664;2023-04-30T06:28:56;7.20;;;2.20;;
13731;SDS011;6937;56.096;12.664;2023-04-30T06:31:22;7.10;;;2.05;;
13731;SDS011;6937;56.096;12.664;2023-04-30T06:33:47;6.25;;;2.03;;
13731;SDS011;6937;56.096;12.664;2023-04-30T06:36:14;4.20;;;1.83;;
13731;SDS011;6937;56.096;12.664;2023-04-30T06:38:39;6.13;;;1.70;;
13731;SDS011;6937;56.096;12.664;2023-04-30T06:41:05;5.18;;;1.40;;
13731;SDS011;6937;56.096;12.664;2023-04-30T06:43:31;6.03;;;1.50;;
13731;SDS011;6937;56.096;12.664;2023-04-30T06:45:56;6.75;;;1.83;;
13731;SDS011;6937;56.096;12.664;2023-04-30T06:48:21;5.63;;;1.65;;
13731;SDS011;6937;56.096;12.664;2023-04-30T06:50:47;5.50;;;1.67;;
13731;SDS011;6937;56.096;12.664;2023-04-30T06:53:13;4.07;;;1.40;;
13731;SDS011;6937;56.096;12.664;2023-04-30T06:55:43;3.72;;;1.67;;
13731;SDS011;6937;56.096;12.664;2023-04-30T06:58:09;5.07;;;1.80;;
13731;SDS011;6937;56.096;12.664;2023-04-30T07:00:34;4.97;;;1.77;;
13731;SDS011;6937;56.096;12.664;2023-04-30T07:03:00;4.00;;;2.17;;
13731;SDS011;6937;56.096;12.664;2023-04-30T07:05:27;3.78;;;1.70;;
13731;SDS011;6937;56.096;12.664;2023-04-30T07:07:53;2.92;;;1.55;;
13731;SDS011;6937;56.096;12.664;2023-04-30T07:10:18;3.83;;;1.77;;
13731;SDS011;6937;56.096;12.664;2023-04-30T07:12:44;5.38;;;1.63;;
13731;SDS011;6937;56.096;12.664;2023-04-30T07:15:10;6.20;;;1.77;;
13731;SDS011;6937;56.096;12.664;2023-04-30T07:17:35;4.43;;;1.35;;
13731;SDS011;6937;56.096;12.664;2023-04-30T07:20:01;3.65;;;1.70;;
13731;SDS011;6937;56.096;12.664;2023-04-30T07:22:28;4.18;;;1.70;;
13731;SDS011;6937;56.096;12.664;2023-04-30T07:24:54;5.80;;;1.98;;
13731;SDS011;6937;56.096;12.664;2023-04-30T07:27:20;4.40;;;1.80;;
13731;SDS011;6937;56.096;12.664;2023-04-30T07:29:45;5.70;;;2.13;;
13731;SDS011;6937;56.096;12.664;2023-04-30T07:32:10;4.68;;;1.58;;
13731;SDS011;6937;56.096;12.664;2023-04-30T07:34:36;4.65;;;1.70;;
13731;SDS011;6937;56.096;12.664;2023-04-30T07:37:01;5.40;;;1.80;;
13731;SDS011;6937;56.096;12.664;2023-04-30T07:39:27;3.90;;;1.48;;
13731;SDS011;6937;56.096;12.664;2023-04-30T07:41:53;5.90;;;1.52;;
13731;SDS011;6937;56.096;12.664;2023-04-30T07:44:18;3.70;;;1.60;;
13731;SDS011;6937;56.096;12.664;2023-04-30T07:46:43;3.78;;;1.50;;
13731;SDS011;6937;56.096;12.664;2023-04-30T07:49:09;5.10;;;2.03;;
13731;SDS011;6937;56.096;12.664;2023-04-30T07:51:34;4.68;;;1.77;;
13731;SDS011;6937;56.096;12.664;2023-04-30T07:54:00;4.82;;;1.90;;
13731;SDS011;6937;56.096;12.664;2023-04-30T07:56:25;4.10;;;1.65;;
13731;SDS011;6937;56.096;12.664;2023-04-30T07:58:51;4.88;;;1.60;;
13731;SDS011;6937;56.096;12.664;2023-04-30T08:01:16;4.25;;;1.70;;
13731;SDS011;6937;56.096;12.664;2023-04-30T08:03:42;4.93;;;1.70;;
13731;SDS011;6937;56.096;12.664;2023-04-30T08:06:07;4.18;;;1.73;;
13731;SDS011;6937;56.096;12.664;2023-04-30T08:08:32;5.18;;;2.00;;
13731;SDS011;6937;56.096;12.664;2023-04-30T08:10:58;6.13;;;1.80;;
13731;SDS011;6937;56.096;12.664;2023-04-30T08:13:23;6.05;;;1.90;;
13731;SDS011;6937;56.096;12.664;2023-04-30T08:15:48;5.72;;;1.88;;
13731;SDS011;6937;56.096;12.664;2023-04-30T08:18:14;4.68;;;1.88;;
13731;SDS011;6937;56.096;12.664;2023-04-30T08:20:40;5.15;;;2.00;;
13731;SDS011;6937;56.096;12.664;2023-04-30T08:23:06;4.10;;;2.00;;
13731;SDS011;6937;56.096;12.664;2023-04-30T08:25:31;4.93;;;2.08;;
13731;SDS011;6937;56.096;12.664;2023-04-30T08:27:57;7.53;;;2.30;;
13731;SDS011;6937;56.096;12.664;2023-04-30T08:30:22;5.22;;;2.00;;
13731;SDS011;6937;56.096;12.664;2023-04-30T08:32:48;5.25;;;1.75;;
13731;SDS011;6937;56.096;12.664;2023-04-30T08:35:14;5.07;;;1.90;;
13731;SDS011;6937;56.096;12.664;2023-04-30T08:37:43;5.95;;;2.20;;
13731;SDS011;6937;56.096;12.664;2023-04-30T08:40:09;5.55;;;2.47;;
13731;SDS011;6937;56.096;12.664;2023-04-30T08:42:36;7.18;;;2.38;;
13731;SDS011;6937;56.096;12.664;2023-04-30T08:45:05;7.30;;;2.20;;
13731;SDS011;6937;56.096;12.664;2023-04-30T08:47:35;5.85;;;1.98;;
13731;SDS011;6937;56.096;12.664;2023-04-30T08:50:02;5.60;;;2.20;;
13731;SDS011;6937;56.096;12.664;2023-04-30T08:52:28;7.15;;;2.35;;
13731;SDS011;6937;56.096;12.664;2023-04-30T08:54:54;4.82;;;2.10;;
13731;SDS011;6937;56.096;12.664;2023-04-30T08:57:22;4.57;;;1.85;;
13731;SDS011;6937;56.096;12.664;2023-04-30T08:59:48;3.83;;;1.90;;
13731;SDS011;6937;56.096;12.664;2023-04-30T09:02:13;4.97;;;2.20;;
13731;SDS011;6937;56.096;12.664;2023-04-30T09:04:38;4.95;;;1.95;;
13731;SDS011;6937;56.096;12.664;2023-04-30T09:07:04;5.07;;;2.00;;
13731;SDS011;6937;56.096;12.664;2023-04-30T09:09:36;7.38;;;2.10;;
13731;SDS011;6937;56.096;12.664;2023-04-30T09:14:38;4.15;;;1.80;;
13731;SDS011;6937;56.096;12.664;2023-04-30T09:17:04;3.83;;;1.60;;
13731;SDS011;6937;56.096;12.664;2023-04-30T09:19:30;7.07;;;2.03;;
13731;SDS011;6937;56.096;12.664;2023-04-30T09:21:56;5.18;;;1.80;;
13731;SDS011;6937;56.096;12.664;2023-04-30T09:24:22;5.45;;;1.88;;
13731;SDS011;6937;56.096;12.664;2023-04-30T09:26:48;3.72;;;1.50;;
13731;SDS011;6937;56.096;12.664;2023-04-30T09:29:14;3.83;;;1.83;;
13731;SDS011;6937;56.096;12.664;2023-04-30T09:31:42;4.95;;;1.88;;
13731;SDS011;6937;56.096;12.664;2023-04-30T09:34:09;3.97;;;1.63;;
13731;SDS011;6937;56.096;12.664;2023-04-30T09:36:35;8.63;;;2.13;;
13731;SDS011;6937;56.096;12.664;2023-04-30T09:39:10;5.18;;;1.75;;
13731;SDS011;6937;56.096;12.664;2023-04-30T09:41:37;3.60;;;1.60;;
13731;SDS011;6937;56.096;12.664;2023-04-30T09:44:03;5.50;;;1.90;;
13731;SDS011;6937;56.096;12.664;2023-04-30T09:46:29;5.95;;;2.03;;
13731;SDS011;6937;56.096;12.664;2023-04-30T09:48:56;7.32;;;1.90;;
13731;SDS011;6937;56.096;12.664;2023-04-30T09:51:23;9.60;;;2.30;;
13731;SDS011;6937;56.096;12.664;2023-04-30T09:53:49;7.97;;;1.80;;
13731;SDS011;6937;56.096;12.664;2023-04-30T09:56:15;5.80;;;2.13;;
13731;SDS011;6937;56.096;12.664;2023-04-30T09:58:46;5.80;;;2.35;;
13731;SDS011;6937;56.096;12.664;2023-04-30T10:01:16;6.97;;;2.40;;
13731;SDS011;6937;56.096;12.664;2023-04-30T10:03:42;5.38;;;2.10;;
13731;SDS011;6937;56.096;12.664;2023-04-30T10:06:08;5.88;;;2.35;;
13731;SDS011;6937;56.096;12.664;2023-04-30T10:08:47;6.43;;;2.33;;
13731;SDS011;6937;56.096;12.664;2023-04-30T10:11:20;5.22;;;2.22;;
13731;SDS011;6937;56.096;12.664;2023-04-30T10:14:01;4.45;;;1.88;;
13731;SDS011;6937;56.096;12.664;2023-04-30T10:16:36;5.88;;;2.20;;
13731;SDS011;6937;56.096;12.664;2023-04-30T10:19:14;5.88;;;2.05;;
13731;SDS011;6937;56.096;12.664;2023-04-30T10:21:49;5.32;;;1.83;;
13731;SDS011;6937;56.096;12.664;2023-04-30T10:24:16;6.40;;;1.80;;
13731;SDS011;6937;56.096;12.664;2023-04-30T10:26:44;5.63;;;2.17;;
13731;SDS011;6937;56.096;12.664;2023-04-30T10:29:12;5.20;;;1.92;;
13731;SDS011;6937;56.096;12.664;2023-04-30T10:31:39;4.25;;;1.70;;
13731;SDS011;6937;56.096;12.664;2023-04-30T10:34:51;5.47;;;1.85;;
13731;SDS011;6937;56.096;12.664;2023-04-30T10:37:23;5.88;;;2.30;;
13731;SDS011;6937;56.096;12.664;2023-04-30T10:40:07;4.05;;;2.03;;
13731;SDS011;6937;56.096;12.664;2023-04-30T10:42:34;5.13;;;1.65;;
13731;SDS011;6937;56.096;12.664;2023-04-30T10:45:01;5.50;;;1.85;;
13731;SDS011;6937;56.096;12.664;2023-04-30T10:47:28;3.50;;;1.52;;
13731;SDS011;6937;56.096;12.664;2023-04-30T10:50:01;5.25;;;1.70;;
13731;SDS011;6937;56.096;12.664;2023-04-30T10:52:28;6.47;;;1.90;;
13731;SDS011;6937;56.096;12.664;2023-04-30T10:54:54;4.97;;;1.80;;
13731;SDS011;6937;56.096;12.664;2023-04-30T10:57:19;4.43;;;1.40;;
13731;SDS011;6937;56.096;12.664;2023-04-30T10:59:52;4.95;;;1.50;;
13731;SDS011;6937;56.096;12.664;2023-04-30T11:02:41;4.45;;;1.90;;
13731;SDS011;6937;56.096;12.664;2023-04-30T11:05:12;3.22;;;1.60;;
13731;SDS011;6937;56.096;12.664;2023-04-30T11:07:55;5.45;;;1.80;;
13731;SDS011;6937;56.096;12.664;2023-04-30T11:10:22;5.43;;;1.67;;
13731;SDS011;6937;56.096;12.664;2023-04-30T11:12:51;5.25;;;1.85;;
13731;SDS011;6937;56.096;12.664;2023-04-30T11:15:24;4.95;;;2.05;;
13731;SDS011;6937;56.096;12.664;2023-04-30T11:17:51;4.85;;;1.60;;
13731;SDS011;6937;56.096;12.664;2023-04-30T11:20:23;4.15;;;1.63;;
13731;SDS011;6937;56.096;12.664;2023-04-30T11:25:42;4.90;;;1.85;;
13731;SDS011;6937;56.096;12.664;2023-04-30T11:28:19;5.32;;;1.88;;
13731;SDS011;6937;56.096;12.664;2023-04-30T11:30:54;5.78;;;1.80;;
13731;SDS011;6937;56.096;12.664;2023-04-30T11:33:24;4.65;;;1.70;;
13731;SDS011;6937;56.096;12.664;2023-04-30T11:35:51;5.78;;;2.30;;
13731;SDS011;6937;56.096;12.664;2023-04-30T11:38:21;6.18;;;1.98;;
13731;SDS011;6937;56.096;12.664;2023-04-30T11:40:51;8.27;;;2.47;;
13731;SDS011;6937;56.096;12.664;2023-04-30T11:43:28;4.40;;;2.10;;
13731;SDS011;6937;56.096;12.664;2023-04-30T11:48:42;6.85;;;1.90;;
13731;SDS011;6937;56.096;12.664;2023-04-30T11:53:51;5.22;;;1.80;;
13731;SDS011;6937;56.096;12.664;2023-04-30T11:56:17;6.68;;;1.98;;
13731;SDS011;6937;56.096;12.664;2023-04-30T11:58:45;5.18;;;2.13;;
13731;SDS011;6937;56.096;12.664;2023-04-30T12:01:11;7.57;;;1.98;;
13731;SDS011;6937;56.096;12.664;2023-04-30T12:03:43;3.83;;;1.70;;
13731;SDS011;6937;56.096;12.664;2023-04-30T12:06:24;3.92;;;1.70;;
13731;SDS011;6937;56.096;12.664;2023-04-30T12:08:54;5.40;;;1.77;;
13731;SDS011;6937;56.096;12.664;2023-04-30T12:11:21;4.68;;;1.73;;
13731;SDS011;6937;56.096;12.664;2023-04-30T12:13:52;5.10;;;1.77;;
13731;SDS011;6937;56.096;12.664;2023-04-30T12:16:26;7.63;;;1.80;;
13731;SDS011;6937;56.096;12.664;2023-04-30T12:18:52;6.32;;;1.92;;
13731;SDS011;6937;56.096;12.664;2023-04-30T12:21:18;6.45;;;1.67;;
13731;SDS011;6937;56.096;12.664;2023-04-30T12:23:45;6.13;;;1.70;;
13731;SDS011;6937;56.096;12.664;2023-04-30T12:26:11;9.20;;;2.25;;
13731;SDS011;6937;56.096;12.664;2023-04-30T12:28:37;4.95;;;1.92;;
13731;SDS011;6937;56.096;12.664;2023-04-30T12:31:02;3.50;;;1.50;;
13731;SDS011;6937;56.096;12.664;2023-04-30T12:33:30;5.13;;;2.00;;
13731;SDS011;6937;56.096;12.664;2023-04-30T12:35:56;8.88;;;1.88;;
13731;SDS011;6937;56.096;12.664;2023-04-30T12:38:23;5.78;;;2.00;;
13731;SDS011;6937;56.096;12.664;2023-04-30T12:40:48;3.55;;;1.52;;
13731;SDS011;6937;56.096;12.664;2023-04-30T12:43:14;6.57;;;2.00;;
13731;SDS011;6937;56.096;12.664;2023-04-30T12:48:16;4.53;;;1.70;;
13731;SDS011;6937;56.096;12.664;2023-04-30T12:50:47;5.50;;;1.90;;
13731;SDS011;6937;56.096;12.664;2023-04-30T12:53:17;6.07;;;1.70;;
13731;SDS011;6937;56.096;12.664;2023-04-30T12:55:43;5.88;;;1.60;;
13731;SDS011;6937;56.096;12.664;2023-04-30T12:58:09;3.58;;;1.40;;
13731;SDS011;6937;56.096;12.664;2023-04-30T13:00:43;4.65;;;1.85;;
13731;SDS011;6937;56.096;12.664;2023-04-30T13:03:09;6.30;;;1.83;;
13731;SDS011;6937;56.096;12.664;2023-04-30T13:05:35;6.78;;;1.90;;
13731;SDS011;6937;56.096;12.664;2023-04-30T13:08:01;7.00;;;1.80;;
13731;SDS011;6937;56.096;12.664;2023-04-30T13:10:27;6.38;;;2.20;;
13731;SDS011;6937;56.096;12.664;2023-04-30T13:12:53;3.70;;;1.77;;
13731;SDS011;6937;56.096;12.664;2023-04-30T13:15:19;4.07;;;1.73;;
13731;SDS011;6937;56.096;12.664;2023-04-30T13:17:44;4.35;;;1.98;;
13731;SDS011;6937;56.096;12.664;2023-04-30T13:20:10;5.43;;;1.98;;
13731;SDS011;6937;56.096;12.664;2023-04-30T13:22:35;6.18;;;2.00;;
13731;SDS011;6937;56.096;12.664;2023-04-30T13:25:01;3.70;;;1.60;;
13731;SDS011;6937;56.096;12.664;2023-04-30T13:27:27;7.00;;;2.00;;
13731;SDS011;6937;56.096;12.664;2023-04-30T13:29:52;5.82;;;1.80;;
13731;SDS011;6937;56.096;12.664;2023-04-30T13:32:17;4.95;;;1.65;;
13731;SDS011;6937;56.096;12.664;2023-04-30T13:34:43;7.45;;;2.10;;
13731;SDS011;6937;56.096;12.664;2023-04-30T13:37:09;5.63;;;1.80;;
13731;SDS011;6937;56.096;12.664;2023-04-30T13:39:34;4.45;;;1.88;;
13731;SDS011;6937;56.096;12.664;2023-04-30T13:42:00;5.90;;;2.05;;
13731;SDS011;6937;56.096;12.664;2023-04-30T13:44:25;6.22;;;1.90;;
13731;SDS011;6937;56.096;12.664;2023-04-30T13:46:51;5.47;;;1.80;;
13731;SDS011;6937;56.096;12.664;2023-04-30T13:49:16;5.68;;;1.85;;
13731;SDS011;6937;56.096;12.664;2023-04-30T13:51:42;5.80;;;2.10;;
13731;SDS011;6937;56.096;12.664;2023-04-30T13:54:07;6.32;;;2.00;;
13731;SDS011;6937;56.096;12.664;2023-04-30T13:56:32;5.03;;;1.88;;
13731;SDS011;6937;56.096;12.664;2023-04-30T13:58:58;6.78;;;1.80;;
13731;SDS011;6937;56.096;12.664;2023-04-30T14:01:23;5.47;;;2.03;;
13731;SDS011;6937;56.096;12.664;2023-04-30T14:03:48;5.65;;;2.00;;
13731;SDS011;6937;56.096;12.664;2023-04-30T14:06:14;6.03;;;1.83;;
13731;SDS011;6937;56.096;12.664;2023-04-30T14:08:39;6.72;;;1.85;;
13731;SDS011;6937;56.096;12.664;2023-04-30T14:11:05;5.82;;;1.70;;
13731;SDS011;6937;56.096;12.664;2023-04-30T14:13:30;7.30;;;2.10;;
13731;SDS011;6937;56.096;12.664;2023-04-30T14:15:56;5.57;;;1.85;;
13731;SDS011;6937;56.096;12.664;2023-04-30T14:18:21;6.50;;;2.03;;
13731;SDS011;6937;56.096;12.664;2023-04-30T14:20:47;5.03;;;1.52;;
13731;SDS011;6937;56.096;12.664;2023-04-30T14:23:12;4.15;;;1.60;;
13731;SDS011;6937;56.096;12.664;2023-04-30T14:25:38;5.25;;;2.05;;
13731;SDS011;6937;56.096;12.664;2023-04-30T14:28:03;8.27;;;2.08;;
13731;SDS011;6937;56.096;12.664;2023-04-30T14:30:29;6.57;;;2.20;;
13731;SDS011;6937;56.096;12.664;2023-04-30T14:32:54;4.15;;;1.90;;
13731;SDS011;6937;56.096;12.664;2023-04-30T14:35:20;5.70;;;2.00;;
13731;SDS011;6937;56.096;12.664;2023-04-30T14:37:46;5.15;;;1.92;;
13731;SDS011;6937;56.096;12.664;2023-04-30T14:40:12;6.97;;;2.20;;
13731;SDS011;6937;56.096;12.664;2023-04-30T14:42:37;7.57;;;2.10;;
13731;SDS011;6937;56.096;12.664;2023-04-30T14:45:03;5.38;;;2.17;;
13731;SDS011;6937;56.096;12.664;2023-04-30T14:47:29;8.07;;;2.42;;
13731;SDS011;6937;56.096;12.664;2023-04-30T14:49:55;5.70;;;2.15;;
13731;SDS011;6937;56.096;12.664;2023-04-30T14:52:22;5.47;;;2.00;;
13731;SDS011;6937;56.096;12.664;2023-04-30T14:54:48;5.22;;;2.08;;
13731;SDS011;6937;56.096;12.664;2023-04-30T14:57:14;5.53;;;2.10;;
13731;SDS011;6937;56.096;12.664;2023-04-30T14:59:39;5.15;;;1.92;;
13731;SDS011;6937;56.096;12.664;2023-04-30T15:02:05;5.28;;;1.80;;
13731;SDS011;6937;56.096;12.664;2023-04-30T15:04:31;6.07;;;2.50;;
13731;SDS011;6937;56.096;12.664;2023-04-30T15:06:56;9.32;;;2.08;;
13731;SDS011;6937;56.096;12.664;2023-04-30T15:09:22;6.80;;;2.00;;
13731;SDS011;6937;56.096;12.664;2023-04-30T15:11:47;6.53;;;2.25;;
13731;SDS011;6937;56.096;12.664;2023-04-30T15:14:12;5.18;;;2.00;;
13731;SDS011;6937;56.096;12.664;2023-04-30T15:16:40;6.80;;;2.10;;